Miami, FL

12:30 AM EST on November 26, 2014 (GMT -0500)
Opa Locka | Change Station
CLOSE
Current Station
Airport
Location: Opa Locka,
Elevation: 10 ft
Nearby Weather Stations

Elev 10 ft 25.91 °N, 80.28 °W | Updated 37 minutes ago

Overcast
Overcast
79 °F
Feels Like 79 °F
N
12
Wind Variable Wind from SSE

Today
High -- | Low -- °F
--% Chance of Precip.
Yesterday
High -- | Low -- °F
Precip. -- in
6:47 AM 5:29 PM
Waxing Crescent, 16% visible
Pressure 29.95 in
Visibility 10.0 miles
Clouds Mostly Cloudy 1300 ft
Mostly Cloudy 4400 ft
Overcast 5000 ft
Dew Point 76 °F
Humidity 90%
Rainfall 0.00 in
Snow Depth Not available.
UV 0 out of 12
Pollen 4.00 out of 12
Air Quality Not available.
Flu Activity Not available.
METAR KOPF 260453Z AUTO 16010KT 10SM BKN013 BKN044 OVC050 26/24 A2994 RMK AO2 SLP140 T02610244 403000250

More Conditions Fewer Conditions

Pressure 29.95 in
Visibility 10.0 miles
Clouds Mostly Cloudy 1300 ft
Mostly Cloudy 4400 ft
Overcast 5000 ft
Dew Point 76 °F
Humidity 90%
Rainfall 0.00 in
Snow Depth Not available.
UV 0 out of 12
Pollen 4.00 out of 12
Air Quality Not available.
Flu Activity Not available.
METAR KOPF 260453Z AUTO 16010KT 10SM BKN013 BKN044 OVC050 26/24 A2994 RMK AO2 SLP140 T02610244 403000250

More Conditions Fewer Conditions

10-Day Weather Forecast

Almanac

Astronomy

Nov. 26, 2014 Rise Set
Actual Time
Civil Twilight
Nautical Twilight
Astronomical Twilight
Moon
Length of Visible Light
Length of Day
Tomorrow will be .
, % of the Moon is Illuminated

Today's Extremes

State Highs State Lows

Community

WunderPhotos

Upload Photos

1,773,683 photos uploaded!

WunderBlogs® & News

Nearby

Air Quality

  Air Quality AQ Index Pollutant
Not available.

Snow Depth

Station Depth Elevation

Earthquake Activity

City Distance Mag. Time & Date
Minimum magnitude displayed is 2.5.

Coastal Water Temperatures

Place Temperature

Nearby Weather Stations